• Join FlightAware (Why Join?)
  • Login
  • US Flag 
05:11PM EST


 

Airport Tracker/Info


-or-


 

Live Flight TrackerFlight Track Log ✈ SWA3034 ✈ 14-Jun-2014 ✈ KSFO - KMKE

Flight Track Log - Related Links

Times and Time Zones

All times are in EDT time to prevent confusion due to time zone crossing. See the SWA3034 flight status page for this flight to view local times or setup timezone preferences in your user account.

Time Position Orientation Groundspeed Altitude Reporting Facility
EDT Latitude Longitude Course Direction KTS MPH feet Rate Location/Type
07:49PM 37.6333 -122.3833 47° Northeast 170 196 1,400  Level Northern Cal TRACON
07:50PM 37.6833 -122.3167 47° Northeast 228 262 4,100 2,640 Climbing Northern Cal TRACON
07:51PM 37.7167 -122.2500 58° Northeast 257 296 6,700 2,220 Climbing Northern Cal TRACON
07:53PM 37.7772 -122.1078 62° Northeast 300 345 10,000 2,160 Climbing Oakland Center
07:54PM 37.8119 -121.9978 68° East 331 381 12,500 2,520 Climbing Oakland Center
07:55PM 37.8439 -121.8778 71° East 357 411 15,200 2,820 Climbing Oakland Center
07:56PM 37.8858 -121.7222 71° East 389 448 18,400 2,640 Climbing Oakland Center
07:57PM 37.9181 -121.6033 71° East 412 474 20,600 2,400 Climbing Oakland Center
07:58PM 37.9633 -121.4275 72° East 438 504 23,400 2,400 Climbing Oakland Center
07:59PM 38.0033 -121.2775 71° East 450 518 25,600 1,920 Climbing Oakland Center
08:00PM 38.0436 -121.1222 72° East 465 535 27,400 1,680 Climbing Oakland Center
08:01PM 38.0853 -120.9619 72° East 479 551 29,100 1,500 Climbing Oakland Center
08:02PM 38.1239 -120.7956 74° East 493 567 30,500 1,320 Climbing Oakland Center
08:03PM 38.1642 -120.6250 73° East 505 581 31,900 1,620 Climbing Oakland Center
08:04PM 38.2056 -120.4519 73° East 510 587 33,800 1,800 Climbing Oakland Center
08:05PM 38.2447 -120.2814 74° East 510 587 35,600 1,620 Climbing Oakland Center
08:06PM 38.2953 -120.0789 72° East 505 581 37,200 1,320 Climbing Oakland Center
08:07PM 38.3350 -119.9081 73° East 504 580 38,400 840 Climbing Oakland Center
08:08PM 38.3733 -119.7375 74° East 503 579 39,000 240 Climbing Oakland Center
08:09PM 38.4136 -119.5667 73° East 503 579 39,000  Level Oakland Center
08:10PM 38.4511 -119.4028 74° East 503 579 39,000  Level Oakland Center
08:11PM 38.4914 -119.2342 73° East 503 579 39,000  Level Oakland Center
08:12PM 38.5400 -119.0297 73° East 503 579 39,000  Level Oakland Center
08:13PM 38.5797 -118.8619 73° East 502 578 39,000  Level Oakland Center
08:14PM 38.6183 -118.6919 74° East 502 578 39,000  Level Oakland Center
08:15PM 38.6586 -118.5228 73° East 502 578 39,000  Level Oakland Center
08:16PM 38.6975 -118.3522 74° East 502 578 39,000  Level Oakland Center
08:17PM 38.7361 -118.1800 74° East 503 579 39,000  Level Oakland Center
08:18PM 38.7744 -118.0100 74° East 503 579 39,000  Level Oakland Center
08:19PM 38.8136 -117.8394 74° East 503 579 39,000  Level Oakland Center
08:20PM 38.8564 -117.6392 75° East 503 579 39,000  Level Oakland Center
08:21PM 38.8947 -117.4664 74° East 502 578 39,000  Level Oakland Center
08:22PM 38.9322 -117.2928 74° East 501 577 39,000  Level Oakland Center
08:23PM 38.9706 -117.1219 74° East 501 577 39,000  Level Oakland Center
08:24PM 38.9989 -116.9836 75° East 502 578 39,000  Level Salt Lake Center
08:25PM 39.0356 -116.8106 75° East 502 578 39,000  Level Salt Lake Center
08:26PM 39.0717 -116.6381 75° East 501 577 39,000  Level Salt Lake Center
08:27PM 39.1136 -116.4419 75° East 501 577 39,000  Level Salt Lake Center
08:28PM 39.1483 -116.2753 75° East 501 577 39,000  Level Salt Lake Center
08:29PM 39.1886 -116.0819 75° East 502 578 39,000  Level Salt Lake Center
08:30PM 39.2225 -115.9144 75° East 503 579 39,000  Level Salt Lake Center
08:31PM 39.2628 -115.7200 75° East 503 579 39,000  Level Salt Lake Center
08:32PM 39.2967 -115.5522 75° East 506 582 39,000  Level Salt Lake Center
08:33PM 39.3294 -115.3872 76° East 504 580 39,000  Level Salt Lake Center
08:34PM 39.3681 -115.1928 76° East 499 574 39,000  Level Salt Lake Center
08:35PM 39.3997 -115.0264 76° East 499 574 39,000  Level Salt Lake Center
08:36PM 39.4369 -114.8317 76° East 499 574 39,000  Level Salt Lake Center
08:37PM 39.4706 -114.6644 75° East 501 577 39,000  Level Salt Lake Center
08:38PM 39.5019 -114.4978 76° East 501 577 39,000  Level Salt Lake Center
08:40PM 39.5411 -114.2989 76° East 500 575 39,000  Level Salt Lake Center
08:41PM 39.5733 -114.1242 76° East 500 575 39,000  Level Salt Lake Center
08:42PM 39.6056 -113.9497 76° East 500 575 39,000  Level Salt Lake Center
08:43PM 39.6386 -113.7753 76° East 500 575 39,000  Level Salt Lake Center
08:44PM 39.6697 -113.6025 77° East 498 573 39,000  Level Salt Lake Center
08:45PM 39.7019 -113.4275 76° East 498 573 39,000  Level Salt Lake Center
08:46PM 39.7319 -113.2561 77° East 493 567 39,000  Level Salt Lake Center
08:47PM 39.7619 -113.0858 77° East 492 566 39,000  Level Salt Lake Center
08:48PM 39.7983 -112.8769 77° East 492 566 39,000  Level Salt Lake Center
08:49PM 39.8289 -112.7036 77° East 492 566 39,000  Level Salt Lake Center
08:50PM 39.8592 -112.5289 77° East 495 570 39,000  Level Salt Lake Center
08:51PM 39.8892 -112.3564 77° East 495 570 39,000  Level Salt Lake Center
08:52PM 39.9189 -112.1844 77° East 493 567 39,000  Level Salt Lake Center
08:53PM 39.9472 -112.0097 78° East 493 567 39,000  Level Salt Lake Center
08:54PM 39.9761 -111.8372 78° East 493 567 39,000  Level Salt Lake Center
08:55PM 40.0056 -111.6639 77° East 494 568 39,000  Level Salt Lake Center
08:56PM 40.0375 -111.4575 79° East 496 571 39,000  Level Salt Lake Center
08:57PM 40.0672 -111.2794 78° East 495 570 39,000  Level Salt Lake Center
08:58PM 40.0939 -111.1064 79° East 489 563 39,000  Level Salt Lake Center
08:59PM 40.1222 -110.9261 78° East 492 566 39,000  Level Salt Lake Center
09:00PM 40.1489 -110.7575 78° East 493 567 39,000  Level Salt Lake Center
09:01PM 40.1792 -110.5611 79° East 493 567 39,000  Level Salt Lake Center
09:02PM 40.2061 -110.3892 78° East 498 573 39,000  Level Salt Lake Center
09:03PM 40.2311 -110.2183 79° East 499 574 39,000  Level Salt Lake Center
09:04PM 40.2597 -110.0186 79° East 499 574 39,000  Level Salt Lake Center
09:05PM 40.2864 -109.8478 78° East 499 574 39,000  Level Salt Lake Center
09:06PM 40.3150 -109.6494 79° East 499 574 39,000  Level Salt Lake Center
09:07PM 40.3389 -109.4808 79° East 496 571 39,000  Level Salt Lake Center
09:08PM 40.3639 -109.3131 79° East 494 568 39,000  Level Salt Lake Center
09:09PM 40.3906 -109.1172 80° East 490 564 39,000  Level Salt Lake Center
09:10PM 40.4144 -108.9489 79° East 490 564 39,000  Level Salt Lake Center
09:11PM 40.4403 -108.7592 80° East 490 564 39,000  Level Salt Lake Center
09:12PM 40.4636 -108.5911 80° East 490 564 39,000  Level Salt Lake Center
09:13PM 40.4853 -108.4233 80° East 490 564 39,000  Level Salt Lake Center
09:14PM 40.5117 -108.2272 80° East 490 564 39,000  Level Salt Lake Center
09:15PM 40.5333 -108.0600 80° East 489 563 39,000  Level Salt Lake Center
09:16PM 40.5464 -107.9625 80° East 489 563 39,000  Level Denver Center
09:17PM 40.5675 -107.7931 81° East 489 563 39,000  Level Denver Center
09:18PM 40.5931 -107.5964 80° East 489 563 39,000  Level Denver Center
09:19PM 40.6136 -107.4283 81° East 489 563 39,000  Level Denver Center
09:20PM 40.6342 -107.2622 81° East 485 558 39,000  Level Denver Center
09:21PM 40.6561 -107.0897 80° East 485 558 39,000  Level Denver Center
09:22PM 40.6767 -106.9164 81° East 483 556 39,000  Level Denver Center
09:23PM 40.7017 -106.7147 81° East 467 537 39,000  Level Denver Center
09:24PM 40.7222 -106.5458 81° East 465 535 39,000  Level Denver Center
09:25PM 40.7417 -106.3589 82° East 479 551 39,100  Climbing Denver Center
09:26PM 40.7619 -106.1878 81° East 471 542 39,000 -60 Descending Denver Center
09:27PM 40.7783 -106.0283 82° East 471 542 39,000  Level Denver Center
09:28PM 40.7978 -105.8586 81° East 470 541 39,000  Level Denver Center
09:29PM 40.8172 -105.6853 82° East 473 544 39,000  Level Denver Center
09:30PM 40.8358 -105.5108 82° East 475 547 39,000  Level Denver Center
09:31PM 40.8581 -105.3044 82° East 474 545 39,000  Level Denver Center
09:32PM 40.8758 -105.1342 82° East 471 542 39,000  Level Denver Center
09:33PM 40.8931 -104.9625 82° East 470 541 39,000  Level Denver Center
09:34PM 40.9108 -104.7900 82° East 470 541 39,000  Level Denver Center
09:35PM 40.9269 -104.6206 83° East 466 536 39,000  Level Denver Center
09:36PM 40.9444 -104.4472 82° East 469 540 39,000  Level Denver Center
09:37PM 40.9611 -104.2744 83° East 471 542 39,000  Level Denver Center
09:38PM 40.9769 -104.1014 83° East 471 542 39,000  Level Denver Center
09:39PM 40.9967 -103.8967 83° East 472 543 39,000  Level Denver Center
09:40PM 41.0144 -103.7306 82° East 475 547 39,000  Level Denver Center
09:41PM 41.0483 -103.5619 75° East 491 565 39,000  Level Denver Center
09:42PM 41.0861 -103.3667 76° East 492 566 39,000  Level Denver Center
09:43PM 41.1181 -103.1989 76° East 492 566 39,000  Level Denver Center
09:45PM 41.1539 -103.0036 76° East 492 566 39,000  Level Denver Center
09:46PM 41.1842 -102.8400 76° East 490 564 39,000  Level Denver Center
09:47PM 41.2217 -102.6442 76° East 486 559 39,000  Level Denver Center
09:48PM 41.2500 -102.4822 77° East 480 552 39,000  Level Denver Center
09:49PM 41.2850 -102.2897 76° East 482 555 39,000  Level Denver Center
09:50PM 41.3147 -102.1222 77° East 482 555 39,000  Level Denver Center
09:51PM 41.3442 -101.9494 77° East 494 568 39,000  Level Denver Center
09:52PM 41.3842 -101.7444 75° East 508 585 39,000  Level Denver Center
09:53PM 41.4147 -101.5703 77° East 509 586 39,000  Level Denver Center
09:54PM 41.4483 -101.3678 77° East 504 580 39,000  Level Denver Center
09:55PM 41.4792 -101.1914 77° East 506 582 39,000  Level Denver Center
09:56PM 41.5086 -101.0133 77° East 509 586 39,000  Level Denver Center
09:57PM 41.5436 -100.8033 77° East 519 597 39,000  Level Denver Center
09:58PM 41.5736 -100.6242 77° East 517 595 39,000  Level Denver Center
09:59PM 41.6075 -100.4139 78° East 517 595 39,000  Level Denver Center
10:00PM 41.6367 -100.2369 78° East 513 590 39,000  Level Denver Center
10:01PM 41.6639 -100.0622 78° East 506 582 39,000  Level Denver Center
10:02PM 41.6886 -99.8647 80° East 487 560 39,000  Level Denver Center
10:03PM 41.6847 -99.6839 92° East 473 544 39,000  Level Denver Center
10:04PM 41.6836 -99.6142 91° East 475 547 39,000  Level Minneapolis Center
10:04PM 41.6836 -99.5069 90° East 473 544 39,000  Level Denver Center
10:05PM 41.6847 -99.3269 89° East 478 550 39,000  Level Denver Center
10:06PM 41.6886 -99.1483 88° East 478 550 39,000  Level Denver Center
10:07PM 41.6997 -98.9753 85° East 470 541 39,000  Level Denver Center
10:08PM 41.7156 -98.8117 83° East 445 512 39,000  Level Denver Center
10:09PM 41.7278 -98.6378 85° East 461 531 39,000  Level Denver Center
10:10PM 41.7383 -98.4650 85° East 464 534 39,000  Level Denver Center
10:12PM 41.7414 -98.2169 89° East 469 540 39,000  Level Minneapolis Center
10:13PM 41.7331 -98.0289 93° East 469 540 39,000  Level Minneapolis Center
10:14PM 41.7228 -97.8564 95° East 468 539 39,000  Level Minneapolis Center
10:15PM 41.7103 -97.6872 96° East 463 533 39,000  Level Minneapolis Center
10:16PM 41.6997 -97.5172 95° East 462 532 39,000  Level Minneapolis Center
10:17PM 41.6822 -97.3453 98° East 462 532 39,000  Level Minneapolis Center
10:18PM 41.6633 -97.1772 99° East 462 532 39,000  Level Minneapolis Center
10:19PM 41.6381 -96.9831 100° East 447 514 39,000  Level Minneapolis Center
10:20PM 41.6228 -96.8194 97° East 445 512 39,000  Level Minneapolis Center
10:21PM 41.6558 -96.6553 75° East 452 520 39,000  Level Minneapolis Center
10:22PM 41.6950 -96.4939 72° East 453 521 39,000  Level Minneapolis Center
10:23PM 41.7328 -96.3314 73° East 454 522 39,000  Level Minneapolis Center
10:24PM 41.7719 -96.1667 72° East 455 524 39,000  Level Minneapolis Center
10:25PM 41.8094 -96.0014 73° East 456 525 39,000  Level Minneapolis Center
10:26PM 41.8483 -95.8333 73° East 465 535 39,000  Level Minneapolis Center
10:27PM 41.8875 -95.6619 73° East 471 542 39,000  Level Minneapolis Center
10:28PM 41.9272 -95.4886 73° East 481 554 39,000  Level Minneapolis Center
10:29PM 41.9669 -95.3117 73° East 488 562 39,000  Level Minneapolis Center
10:30PM 42.0075 -95.1325 73° East 496 571 39,000  Level Minneapolis Center
10:31PM 42.0469 -94.9536 73° East 497 572 39,000  Level Minneapolis Center
10:32PM 42.0856 -94.7758 74° East 496 571 39,000  Level Minneapolis Center
10:33PM 42.1244 -94.5986 73° East 496 571 39,000  Level Minneapolis Center
10:34PM 42.1622 -94.4200 74° East 496 571 39,000  Level Minneapolis Center
10:35PM 42.2014 -94.2433 73° East 496 571 39,000  Level Minneapolis Center
10:36PM 42.2397 -94.0625 74° East 495 570 39,000  Level Minneapolis Center
10:37PM 42.2769 -93.8847 74° East 495 570 39,000  Level Minneapolis Center
10:38PM 42.3153 -93.7086 74° East 495 570 39,000  Level Minneapolis Center
10:39PM 42.3508 -93.5328 75° East 495 570 39,000  Level Minneapolis Center
10:40PM 42.3947 -93.3203 74° East 495 570 39,000  Level Minneapolis Center
10:41PM 42.4178 -93.1389 80° East 495 570 39,000  Level Minneapolis Center
10:42PM 42.4386 -92.9592 81° East 492 566 39,000  Level Minneapolis Center
10:43PM 42.4500 -92.8522 82° East 487 560 39,000  Level Chicago Center
10:44PM 42.4703 -92.6742 81° East 485 558 39,000  Level Chicago Center
10:45PM 42.4900 -92.4978 81° East 484 557 39,000  Level Chicago Center
10:46PM 42.5097 -92.3214 81° East 481 554 39,000  Level Chicago Center
10:47PM 42.5292 -92.1453 81° East 480 552 39,000  Level Chicago Center
10:48PM 42.5486 -91.9689 81° East 480 552 39,000  Level Chicago Center
10:49PM 42.5672 -91.7944 82° East 480 552 39,000  Level Chicago Center
10:50PM 42.5886 -91.5861 82° East 479 551 39,000  Level Chicago Center
10:51PM 42.6064 -91.4139 82° East 475 547 39,000  Level Chicago Center
10:52PM 42.6244 -91.2414 82° East 473 544 39,000  Level Chicago Center
10:53PM 42.6419 -91.0675 82° East 474 545 39,000 -780 Level Chicago Center
10:54PM 42.6575 -90.8936 83° East 472 543 37,500 -2,040 Descending Chicago Center
10:55PM 42.6750 -90.7189 82° East 472 543 34,900 -2,760 Descending Chicago Center
10:56PM 42.6919 -90.5411 83° East 478 550 31,900 -2,940 Descending Chicago Center
10:57PM 42.7119 -90.3294 83° East 475 547 29,000 -2,580 Descending Chicago Center
10:58PM 42.7264 -90.1553 84° East 463 533 26,700 -2,340 Descending Chicago Center
10:59PM 42.7314 -89.9894 88° East 445 512 24,400 -2,100 Descending Chicago Center
11:00PM 42.7369 -89.8392 87° East 435 501 22,400 -2,040 Descending Chicago Center
11:01PM 42.7414 -89.6831 88° East 421 484 20,300 -2,340 Descending Chicago Center
11:02PM 42.7481 -89.5006 87° East 407 468 17,700 -2,400 Descending Chicago Center
11:03PM 42.7536 -89.3553 87° East 390 449 15,500 -2,160 Descending Chicago Center
11:04PM 42.7564 -89.2097 88° East 389 448 13,400 -1,560 Descending Chicago Center
11:05PM 42.7606 -89.0681 88° East 382 440 12,400 -1,020 Descending Chicago Center
11:06PM 42.7644 -88.9333 88° East 367 422 11,400 -1,140 Descending Chicago Center
11:07PM 42.7694 -88.8014 87° East 356 410 10,200 -1,200 Descending Chicago Center
11:08PM 42.7719 -88.6833 88° East 320 368 9,000 -660 Descending Chicago Center
11:09PM 42.7889 -88.5717 78° East 307 353 8,900  Descending Chicago Center
11:10PM 42.8092 -88.4572 76° East 307 353 9,000  Climbing Chicago Center
11:11PM 42.8333 -88.3439 74° East 310 357 9,000 -120 Level Chicago Center
11:12PM 42.8622 -88.2358 70° East 309 356 8,800 -960 Descending Chicago Center
11:13PM 42.9128 -88.1458 52° Northeast 312 359 7,100 -1,740 Descending Chicago Center
11:14PM 42.9806 -88.0786 36° Northeast 304 350 5,300 -1,980 Descending Chicago Center
11:15PM 43.0294 -87.9844 55° Northeast 271 312 3,100 -1,500 Descending Chicago Center
11:16PM 43.0361 -87.9181 82° East 217 250 2,300 -720 Descending Chicago Center
11:17PM 43.0119 -87.8903 140° Southeast 150 173 1,700 -540 Descending Chicago Center
11:18PM 42.9847 -87.8864 174° South 134 154 1,300 -420 Descending Chicago Center
11:20PM 42.9469 -87.8971 166° South  Level Estimated
11:27PM 42.9469 -87.8971 166° South  Level Estimated